الصفحة الرئيسية
METAR-TAF:

METAR-TAF

مطار :

مطار كريستيانو رونالدو

فونشال, جزر ماديرا, البرتغال

دائرة عرض: 32-41-52N, خط طول: 016-46-28W, ارتفاع: 59 متر

مراقبة الطقس الحالي

تاريخ ووقت الإصدار 11 دقيقة قبل الساعة 01:00UTC
ريح 12 عقدة من الشمال, الاتجاه يتراوح بين الشمال الغربي و الشمال الشرقي
درجة الحرارة 22°درجة مئوية
الرطوبة 69%
ضغط 1022 hPa
الرؤية 10 كم أو أكثر
غيوم متفرقة على ارتفاع 1500 قدم

METAR: LPMA 170100Z 36012KT 320V040 9999 SCT015 22/16 Q1022

زمن: 02:11 (01:11 UTC)

توقعات

تاريخ ووقت الإصدار 2ساعات و 11 دقيقة قبل الساعة 23:00UTC
التوقعات صالحة من17 الساعة 00 UTC إلى 17 الساعة 24 UTC
ريح 12 عقدة من الشمال/الشمال الشرقي
الرؤية 10 كم أو أكثر
غيوم متفرقة على ارتفاع 1500 قدم
مؤقت
من 17 الساعة 00 UTC إلى 17 الساعة 24 UTC
ريح 15 عقدة من الشمال تتزايد حتى 25 عقدة

TAF: LPMA 162300Z 1700/1724 02012KT 9999 SCT015 TEMPO 1700/1724 01015G25KT

أرصاد الطقس والتوقعات من أكثر من 4000 مطار (تقارير الطقس للمطار METAR والتنبؤ بالطقس بالمطارTAF).

المحطات المتاحة هي النقط الصفراء والحمراء على الخريطة.

حرك المؤشر فوق النقطة لمعرفة اسم المحطة.

ثم انقر لمعرفة أرصاد وتوقعات الطقس.

لتغيير الخارطة: اضغط على الأزرار الخضراء مع رمز الصليب الأسود للتكبير. على الزر الأخضر مع شرطة للتصغير، أو على الأسهم الخضراء للخرائط المجاورة.


METAR-TAF: